Time;durP1;ratioP1;P1;durP2;ratioP2;P2;SDS_P1;SDS_P2;PMS_P1;PMS_P2;Temp;Humidity;BMP_temperature;BMP_pressure;BME280_temperature;BME280_humidity;BME280_pressure;Samples;Min_cycle;Max_cycle;Signal;HPM_P1;HPM_P2
2021/06/24 00:02:12;;;;;;;7.10;3.00;;;;;;;26.62;100.00;100164.90;1748546;79;22305;-62
2021/06/24 00:04:38;;;;;;;6.67;3.27;;;;;;;26.78;100.00;100161.42;1760194;79;21043;-67
2021/06/24 00:07:06;;;;;;;8.37;3.63;;;;;;;26.80;100.00;100160.60;1723605;81;21944;-65
2021/06/24 00:09:35;;;;;;;4.73;2.90;;;;;;;26.93;98.39;100152.63;1746160;79;21604;-68
2021/06/24 00:12:05;;;;;;;7.77;3.13;;;;;;;26.89;96.95;100153.48;1757378;79;20940;-68
2021/06/24 00:14:32;;;;;;;8.70;3.17;;;;;;;26.60;98.23;100157.73;1755598;79;21065;-67
2021/06/24 00:16:58;;;;;;;11.67;3.73;;;;;;;26.68;97.74;100153.05;1753200;79;21001;-61
2021/06/24 00:19:25;;;;;;;7.73;3.57;;;;;;;26.82;94.27;100147.72;1714160;81;21064;-67
2021/06/24 00:21:52;;;;;;;8.30;2.90;;;;;;;26.92;92.32;100148.34;1747309;79;21065;-68
2021/06/24 00:24:19;;;;;;;7.10;3.30;;;;;;;27.05;89.44;100154.00;1746217;79;20986;-67
2021/06/24 00:26:48;;;;;;;8.30;3.53;;;;;;;27.18;86.41;100156.48;1740068;80;21211;-66
2021/06/24 00:29:15;;;;;;;9.13;4.00;;;;;;;27.22;85.39;100155.59;1746828;81;20975;-60
2021/06/24 00:31:42;;;;;;;7.53;3.70;;;;;;;27.24;83.79;100157.97;1714144;81;21014;-67
2021/06/24 00:34:09;;;;;;;10.77;3.77;;;;;;;27.32;83.10;100149.27;1689985;83;21003;-68
2021/06/24 00:36:36;;;;;;;6.87;4.47;;;;;;;27.48;80.51;100147.08;1736105;79;21025;-67
2021/06/24 00:39:04;;;;;;;8.53;4.43;;;;;;;27.27;81.62;100152.81;1761945;79;21149;-67
2021/06/24 00:41:31;;;;;;;5.97;3.30;;;;;;;27.28;80.38;100160.32;1715428;81;20998;-66
2021/06/24 00:43:58;;;;;;;13.00;4.20;;;;;;;26.97;83.53;100159.48;1732825;81;21085;-67
2021/06/24 00:46:24;;;;;;;9.30;3.10;;;;;;;26.94;82.93;100150.73;1740527;79;21069;-64
2021/06/24 00:48:58;;;;;;;8.27;3.63;;;;;;;27.20;79.74;100164.48;1746773;79;21532;-66
2021/06/24 00:51:25;;;;;;;9.43;3.67;;;;;;;27.44;77.07;100154.12;1738730;80;21135;-67
2021/06/24 00:53:53;;;;;;;6.50;4.17;;;;;;;27.39;76.17;100159.83;1714181;81;21314;-68
2021/06/24 00:56:31;;;;;;;8.73;3.93;;;;;;;27.29;76.02;100164.03;1744773;79;21050;-59
2021/06/24 00:59:00;;;;;;;7.80;3.47;;;;;;;27.56;72.94;100156.53;1741038;79;20962;-61
2021/06/24 01:01:27;;;;;;;9.23;3.93;;;;;;;27.50;70.50;100161.73;1739349;79;20871;-67
2021/06/24 01:03:55;;;;;;;9.20;3.43;;;;;;;27.65;68.95;100162.80;1714324;81;21149;-66
2021/06/24 01:06:22;;;;;;;7.47;3.60;;;;;;;27.74;66.91;100156.21;1755339;79;21259;-67
2021/06/24 01:08:49;;;;;;;9.53;2.93;;;;;;;27.77;65.60;100156.14;1717299;83;21497;-66
2021/06/24 01:11:19;;;;;;;9.73;3.20;;;;;;;27.71;65.50;100161.34;1706844;82;21051;-67
2021/06/24 01:13:47;;;;;;;4.93;2.80;;;;;;;27.76;64.89;100163.94;1710242;82;21574;-67
2021/06/24 01:16:15;;;;;;;7.30;3.90;;;;;;;27.85;63.20;100162.94;1713987;81;21135;-67
2021/06/24 01:18:43;;;;;;;7.47;3.27;;;;;;;27.61;64.05;100170.36;1693790;83;21047;-68
2021/06/24 01:21:10;;;;;;;4.90;2.77;;;;;;;27.54;63.94;100162.75;1715269;82;21089;-66
2021/06/24 01:23:40;;;;;;;7.93;2.83;;;;;;;27.71;63.52;100162.13;1715514;81;21090;-67
2021/06/24 01:26:07;;;;;;;4.67;3.00;;;;;;;27.85;61.70;100163.48;1700503;82;21017;-67
2021/06/24 01:28:35;;;;;;;7.67;3.20;;;;;;;27.93;61.15;100171.36;1734986;79;21157;-68
2021/06/24 01:31:02;;;;;;;7.40;2.83;;;;;;;27.81;60.47;100171.88;1712037;81;20897;-68
2021/06/24 01:33:30;;;;;;;8.43;3.10;;;;;;;27.56;63.35;100169.92;1720865;80;20915;-60
2021/06/24 01:36:01;;;;;;;5.50;2.60;;;;;;;27.63;63.47;100170.87;1713359;81;21049;-68
2021/06/24 01:38:30;;;;;;;7.95;3.70;;;;;;;27.53;63.26;100175.08;1709404;82;21076;-68
2021/06/24 01:40:58;;;;;;;7.30;3.43;;;;;;;27.05;65.87;100178.08;1700374;83;21199;-67
2021/06/24 01:43:25;;;;;;;8.03;3.43;;;;;;;26.89;70.24;100178.34;1708094;82;20975;-66
2021/06/24 01:45:55;;;;;;;6.37;2.97;;;;;;;26.83;70.74;100183.55;1703189;82;21568;-65
2021/06/24 01:48:23;;;;;;;5.70;3.00;;;;;;;26.80;71.31;100182.78;1700441;82;21226;-66
2021/06/24 01:50:52;;;;;;;7.70;3.57;;;;;;;26.86;69.95;100173.60;1703606;83;21129;-66
2021/06/24 01:53:19;;;;;;;9.80;3.60;;;;;;;26.85;70.09;100184.58;1713690;81;21134;-65
2021/06/24 01:55:47;;;;;;;8.83;3.20;;;;;;;27.03;67.88;100181.61;1714902;82;21662;-63
2021/06/24 01:58:21;;;;;;;11.33;3.87;;;;;;;27.09;66.99;100183.11;1701131;82;21099;-69
2021/06/24 02:01:02;;;;;;;6.43;3.33;;;;;;;27.01;66.40;100184.59;1702977;83;21068;-62
2021/06/24 02:03:37;;;;;;;6.73;3.20;;;;;;;27.14;65.85;100191.07;1700738;81;21176;-69
2021/06/24 02:06:05;;;;;;;9.50;3.00;;;;;;;27.34;64.07;100190.69;1689117;83;21095;-68
2021/06/24 02:08:35;;;;;;;6.37;2.90;;;;;;;27.24;63.90;100196.25;1713502;83;21069;-69
2021/06/24 02:11:09;;;;;;;8.57;3.03;;;;;;;27.24;64.81;100206.13;1712802;83;20966;-66
2021/06/24 02:13:37;;;;;;;5.97;3.07;;;;;;;27.14;64.84;100197.21;1707578;81;21102;-68
2021/06/24 02:16:06;;;;;;;6.17;2.87;;;;;;;27.33;63.55;100199.02;1698870;82;21608;-68
2021/06/24 02:18:32;;;;;;;5.73;2.60;;;;;;;27.22;64.07;100205.11;1706116;82;21381;-68
2021/06/24 02:21:01;;;;;;;10.00;2.97;;;;;;;27.23;64.44;100205.34;1698984;82;21064;-62
2021/06/24 02:23:29;;;;;;;8.37;3.43;;;;;;;27.25;64.65;100203.73;1698429;82;21084;-69
2021/06/24 02:25:58;;;;;;;9.03;3.20;;;;;;;27.21;65.58;100203.52;1703727;83;21020;-67
2021/06/24 02:28:26;;;;;;;7.50;3.27;;;;;;;27.12;66.26;100200.74;1691009;83;21004;-69
2021/06/24 02:30:55;;;;;;;5.77;3.00;;;;;;;27.11;65.85;100199.13;1702200;83;21914;-67
2021/06/24 02:33:22;;;;;;;7.20;3.00;;;;;;;27.07;66.11;100200.78;1711224;82;20975;-71
2021/06/24 02:35:55;;;;;;;7.57;2.47;;;;;;;27.55;62.91;100194.33;1714340;82;20995;-70
2021/06/24 02:38:22;;;;;;;5.03;2.77;;;;;;;27.53;63.38;100183.11;1716439;81;20983;-69
2021/06/24 02:40:57;;;;;;;5.97;2.40;;;;;;;27.47;63.52;100199.84;1712388;81;21543;-62
2021/06/24 02:43:25;;;;;;;6.77;2.87;;;;;;;27.46;64.21;100190.20;1681584;82;22138;-67
2021/06/24 02:45:54;;;;;;;5.77;3.23;;;;;;;27.35;66.26;100210.21;1692539;82;20940;-67
2021/06/24 02:48:25;;;;;;;7.73;2.97;;;;;;;27.24;66.26;100213.64;1746306;79;20978;-64
2021/06/24 02:50:54;;;;;;;7.47;2.90;;;;;;;27.33;66.79;100209.73;1747325;81;21025;-66
2021/06/24 02:53:20;;;;;;;7.17;3.10;;;;;;;27.48;65.89;100214.02;1737179;79;21090;-69
2021/06/24 02:55:48;;;;;;;5.80;3.23;;;;;;;27.02;70.59;100206.78;1748129;80;21065;-69
2021/06/24 02:58:16;;;;;;;4.77;2.93;;;;;;;27.00;71.92;100206.27;1712817;81;20983;-62
2021/06/24 03:00:54;;;;;;;7.67;2.50;;;;;;;26.76;73.45;100215.22;1710292;80;21838;-68
2021/06/24 03:03:22;;;;;;;8.00;3.00;;;;;;;26.99;72.79;100205.48;1740676;80;21461;-68
2021/06/24 03:05:53;;;;;;;;;;;;;;;27.03;71.81;100212.38;1742285;80;20884;-69
2021/06/24 03:08:21;;;;;;;5.50;3.00;;;;;;;26.75;75.94;100208.28;1734232;80;22181;-67
2021/06/24 03:10:52;;;;;;;9.10;2.57;;;;;;;26.82;75.63;100218.07;1727657;80;21085;-67
2021/06/24 03:13:20;;;;;;;10.83;3.40;;;;;;;26.85;77.46;100211.32;1735928;80;21058;-68
2021/06/24 03:15:48;;;;;;;5.83;3.00;;;;;;;26.97;77.19;100207.64;1741563;81;21022;-66
2021/06/24 03:18:15;;;;;;;6.97;2.80;;;;;;;26.89;77.43;100207.77;1739208;80;21513;-65
2021/06/24 03:20:43;;;;;;;5.03;2.60;;;;;;;27.09;75.67;100201.84;1721468;82;21153;-61
2021/06/24 03:23:11;;;;;;;5.90;3.20;;;;;;;27.07;73.76;100206.68;1742246;80;21028;-67
2021/06/24 03:25:40;;;;;;;8.57;2.20;;;;;;;26.90;76.72;100210.71;1738457;80;20963;-67
2021/06/24 03:28:07;;;;;;;7.20;2.33;;;;;;;26.93;77.99;100215.48;1743456;81;20975;-68
2021/06/24 03:30:42;;;;;;;9.07;2.80;;;;;;;27.00;78.26;100215.62;1742431;80;20884;-63
2021/06/24 03:33:11;;;;;;;7.80;3.10;;;;;;;27.06;78.78;100220.61;1744118;80;21069;-68
2021/06/24 03:35:37;;;;;;;6.70;2.40;;;;;;;26.89;82.45;100219.80;1729439;80;20932;-67
2021/06/24 03:38:04;;;;;;;7.17;2.20;;;;;;;26.87;84.85;100217.98;1741737;80;21492;-61
2021/06/24 03:40:31;;;;;;;7.57;2.77;;;;;;;26.95;84.93;100224.54;1737261;80;22365;-66
2021/06/24 03:43:00;;;;;;;10.13;2.50;;;;;;;27.05;86.51;100223.55;1738436;82;20931;-64
2021/06/24 03:45:27;;;;;;;5.73;2.77;;;;;;;27.12;83.37;100233.37;1740599;81;22183;-67
2021/06/24 03:47:54;;;;;;;6.37;3.00;;;;;;;27.23;82.96;100221.40;1741506;80;20972;-66
2021/06/24 03:50:21;;;;;;;8.90;4.13;;;;;;;27.24;83.99;100215.50;1716013;83;21069;-64
2021/06/24 03:52:49;;;;;;;7.90;3.13;;;;;;;27.29;85.25;100222.91;1718017;82;20999;-65
2021/06/24 03:55:17;;;;;;;6.97;2.73;;;;;;;27.25;87.48;100233.17;1716511;81;20924;-65
2021/06/24 03:57:44;;;;;;;8.77;2.60;;;;;;;27.36;88.57;100226.55;1718068;82;21180;-66
2021/06/24 04:00:16;;;;;;;;;;;;;;;27.40;86.86;100225.65;1722159;81;22483;-68
2021/06/24 04:02:44;;;;;;;8.83;2.83;;;;;;;27.25;88.71;100235.30;1715327;83;20116;-61
2021/06/24 04:05:13;;;;;;;8.27;2.27;;;;;;;27.20;89.47;100223.87;1711537;83;21010;-68
2021/06/24 04:07:40;;;;;;;6.83;2.63;;;;;;;27.22;88.27;100213.13;1711729;82;21026;-68
2021/06/24 04:10:09;;;;;;;8.63;2.63;;;;;;;27.36;84.59;100217.97;1711802;83;22116;-69
2021/06/24 04:12:37;;;;;;;11.13;3.30;;;;;;;27.34;80.99;100222.02;1712339;83;20932;-69
2021/06/24 04:15:14;;;;;;;11.80;2.60;;;;;;;27.23;82.79;100217.39;1730095;80;21259;-70
2021/06/24 04:17:42;;;;;;;9.73;2.40;;;;;;;27.06;86.24;100233.19;1744722;81;21616;-67
2021/06/24 04:20:10;;;;;;;5.73;2.40;;;;;;;27.15;85.95;100234.13;1714114;81;21731;-70
2021/06/24 04:22:39;;;;;;;5.90;2.80;;;;;;;27.13;88.16;100234.98;1713365;81;21152;-69
2021/06/24 04:25:10;;;;;;;6.50;2.53;;;;;;;27.28;86.28;100227.23;1715078;82;21402;-63
2021/06/24 04:27:37;;;;;;;6.60;2.70;;;;;;;27.38;87.69;100227.81;1705706;82;20935;-66
2021/06/24 04:30:05;;;;;;;12.90;3.33;;;;;;;27.50;87.45;100227.88;1737571;80;20978;-69
2021/06/24 04:32:33;;;;;;;10.47;3.10;;;;;;;27.58;84.30;100226.66;1749103;80;21567;-69
2021/06/24 04:35:00;;;;;;;7.07;3.03;;;;;;;27.60;86.19;100222.34;1756844;80;21137;-63
2021/06/24 04:37:27;;;;;;;8.03;3.07;;;;;;;27.57;85.79;100233.09;1738255;80;20998;-69
2021/06/24 04:39:53;;;;;;;6.77;2.77;;;;;;;27.61;85.84;100227.38;1730522;80;20932;-61
2021/06/24 04:42:22;;;;;;;9.37;3.47;;;;;;;27.57;86.17;100231.75;1778613;80;20970;-67
2021/06/24 04:45:06;;;;;;;6.40;2.37;;;;;;;27.65;87.84;100236.95;1744571;80;20923;-65
2021/06/24 04:47:36;;;;;;;11.43;3.25;;;;;;;27.46;90.66;100234.92;1744654;81;21131;-67
2021/06/24 04:50:05;;;;;;;6.23;2.77;;;;;;;27.59;89.87;100248.33;1740377;80;21497;-61
2021/06/24 04:52:51;;;;;;;7.63;2.90;;;;;;;27.65;88.50;100249.01;1742436;81;21106;-67
2021/06/24 04:55:38;;;;;;;8.13;2.83;;;;;;;27.79;88.52;100244.48;1688886;82;20935;-68
2021/06/24 04:57:58;;;;;;;6.60;2.60;;;;;;;27.91;86.28;100239.96;1743282;79;21046;-67
2021/06/24 05:00:42;;;;;;;9.87;2.90;;;;;;;27.93;85.65;100244.48;1738148;81;22367;-67
2021/06/24 05:03:11;;;;;;;12.50;3.23;;;;;;;27.89;85.75;100248.31;1747942;81;20963;-69
2021/06/24 05:05:42;;;;;;;9.40;3.65;;;;;;;28.08;83.67;100240.16;1747837;81;21052;-69
2021/06/24 05:08:19;;;;;;;11.70;2.93;;;;;;;28.01;83.38;100234.41;1746005;81;21063;-61
2021/06/24 05:10:40;;;;;;;11.53;4.50;;;;;;;28.07;80.64;100245.27;1746784;81;21042;-68
2021/06/24 05:13:07;;;;;;;7.43;2.97;;;;;;;28.14;79.58;100237.59;1777581;78;21138;-68
2021/06/24 05:15:35;;;;;;;10.07;3.60;;;;;;;28.22;75.60;100233.41;1787248;79;21038;-66
2021/06/24 05:18:03;;;;;;;13.77;3.30;;;;;;;28.20;74.59;100232.14;1744744;81;21071;-63
2021/06/24 05:20:30;;;;;;;7.93;2.73;;;;;;;28.09;75.86;100236.37;1741942;82;21070;-69
2021/06/24 05:22:57;;;;;;;8.33;3.33;;;;;;;28.21;76.88;100239.87;1742173;81;22358;-68
2021/06/24 05:25:24;;;;;;;7.23;2.90;;;;;;;28.30;76.59;100236.73;1740644;81;21077;-70
2021/06/24 05:27:51;;;;;;;8.50;3.30;;;;;;;28.44;76.07;100231.90;1741585;81;20939;-65
2021/06/24 05:30:19;;;;;;;14.10;3.83;;;;;;;28.51;74.31;100244.34;1739613;81;21475;-66
2021/06/24 05:32:46;;;;;;;8.43;3.70;;;;;;;28.55;73.16;100234.59;1742118;81;21592;-66
2021/06/24 05:35:13;;;;;;;11.07;4.20;;;;;;;28.65;71.59;100250.46;1739025;81;21007;-69
2021/06/24 05:37:40;;;;;;;7.90;3.27;;;;;;;28.66;71.97;100270.81;1741148;81;21143;-66
2021/06/24 05:40:09;;;;;;;9.63;4.00;;;;;;;28.64;75.98;100273.02;1741809;81;21434;-66
2021/06/24 05:42:36;;;;;;;12.23;4.27;;;;;;;28.66;76.83;100284.78;1739700;81;20980;-63
2021/06/24 05:45:04;;;;;;;10.40;4.53;;;;;;;28.67;77.58;100291.72;1748523;80;20896;-66
2021/06/24 05:47:31;;;;;;;10.23;3.53;;;;;;;28.73;82.00;100280.58;1741442;82;20896;-68
2021/06/24 05:49:59;;;;;;;14.83;3.90;;;;;;;28.72;82.53;100283.02;1744842;81;21081;-65
2021/06/24 05:52:25;;;;;;;11.57;3.50;;;;;;;28.71;81.24;100267.21;1732568;82;21031;-61
2021/06/24 05:54:52;;;;;;;6.70;2.77;;;;;;;28.76;78.97;100271.14;1744576;80;21015;-66
2021/06/24 05:57:19;;;;;;;8.43;3.30;;;;;;;28.84;78.79;100267.17;1728275;82;21607;-67
2021/06/24 05:59:46;;;;;;;7.03;3.73;;;;;;;29.01;78.47;100262.48;1740772;80;21587;-63
2021/06/24 06:02:13;;;;;;;10.83;3.50;;;;;;;29.09;77.62;100282.42;1719525;80;21134;-67
2021/06/24 06:04:39;;;;;;;14.47;3.93;;;;;;;29.22;81.04;100281.58;1734465;80;21082;-66
2021/06/24 06:07:07;;;;;;;15.60;5.17;;;;;;;29.50;78.94;100278.70;1738654;82;21109;-67
2021/06/24 06:09:35;;;;;;;12.17;4.30;;;;;;;29.72;78.38;100262.55;1748757;81;21477;-66
2021/06/24 06:12:04;;;;;;;8.50;3.73;;;;;;;29.95;77.50;100261.13;1741528;80;21038;-67
2021/06/24 06:14:31;;;;;;;14.23;4.27;;;;;;;30.03;72.16;100263.03;1740012;81;21149;-60
2021/06/24 06:16:58;;;;;;;14.33;4.40;;;;;;;30.06;69.78;100270.48;1734058;81;20924;-70
2021/06/24 06:19:24;;;;;;;10.43;4.10;;;;;;;29.78;71.02;100255.95;1735983;80;22155;-68
2021/06/24 06:21:53;;;;;;;16.50;4.80;;;;;;;29.27;72.60;100255.93;1771327;79;20975;-60
2021/06/24 06:24:20;;;;;;;9.27;3.50;;;;;;;29.59;69.04;100264.81;1773039;79;20995;-68
2021/06/24 06:26:47;;;;;;;12.90;4.03;;;;;;;29.55;69.75;100259.79;1769427;78;21217;-66
2021/06/24 06:29:14;;;;;;;13.57;4.10;;;;;;;29.44;66.98;100284.78;1768434;78;20936;-69
2021/06/24 06:31:41;;;;;;;11.00;4.30;;;;;;;29.45;66.93;100276.95;1759975;79;21014;-69
2021/06/24 06:34:10;;;;;;;15.80;4.10;;;;;;;29.38;69.33;100283.87;1737500;81;20922;-66
2021/06/24 06:36:37;;;;;;;11.27;3.87;;;;;;;29.38;72.57;100284.66;1744296;80;21028;-67
2021/06/24 06:39:04;;;;;;;9.53;3.60;;;;;;;29.21;83.49;100267.91;1742046;81;21122;-60
2021/06/24 06:41:32;;;;;;;15.07;4.37;;;;;;;28.84;86.86;100273.09;1741903;81;22401;-67
2021/06/24 06:43:59;;;;;;;15.07;4.97;;;;;;;28.72;87.53;100261.56;1744843;81;20967;-67
2021/06/24 06:46:26;;;;;;;12.87;3.93;;;;;;;28.57;86.07;100276.11;1739622;81;21052;-67
2021/06/24 06:48:53;;;;;;;11.10;3.73;;;;;;;28.51;87.60;100257.75;1749446;81;21125;-67
2021/06/24 06:51:23;;;;;;;10.17;3.97;;;;;;;28.54;87.50;100268.67;1760228;79;21144;-65
2021/06/24 06:53:50;;;;;;;14.03;4.63;;;;;;;28.59;87.14;100260.50;1743477;79;21544;-61
2021/06/24 06:56:17;;;;;;;17.70;4.63;;;;;;;28.47;84.22;100263.48;1760902;79;21046;-66
2021/06/24 06:58:44;;;;;;;17.23;4.07;;;;;;;28.51;81.33;100267.92;1786293;79;20915;-66
2021/06/24 07:01:11;;;;;;;11.73;4.00;;;;;;;28.42;82.97;100290.41;1778290;78;21338;-67
2021/06/24 07:03:37;;;;;;;12.53;4.03;;;;;;;28.47;84.04;100289.73;1739926;80;21147;-62
2021/06/24 07:06:05;;;;;;;10.07;3.90;;;;;;;28.54;85.82;100302.73;1737907;81;21050;-69
2021/06/24 07:08:32;;;;;;;12.90;4.40;;;;;;;28.53;89.01;100302.50;1740825;80;21063;-68
2021/06/24 07:11:01;;;;;;;10.77;4.13;;;;;;;28.84;88.31;100289.97;1743766;81;21038;-65
2021/06/24 07:13:28;;;;;;;15.13;4.70;;;;;;;28.99;86.46;100277.33;1741791;80;21029;-65
2021/06/24 07:15:57;;;;;;;12.73;5.03;;;;;;;29.17;83.77;100289.77;1741189;80;21114;-61
2021/06/24 07:18:24;;;;;;;13.73;4.13;;;;;;;29.35;80.74;100298.69;1737052;80;21545;-69
2021/06/24 07:20:52;;;;;;;10.10;3.20;;;;;;;29.46;79.78;100309.97;1737943;80;21095;-67
2021/06/24 07:23:19;;;;;;;11.03;4.13;;;;;;;29.60;80.91;100316.64;1739893;81;20955;-69
2021/06/24 07:25:46;;;;;;;14.00;4.93;;;;;;;29.67;81.06;100308.37;1738445;80;21510;-66
2021/06/24 07:28:13;;;;;;;13.23;4.47;;;;;;;29.79;80.73;100303.20;1743744;80;21130;-62
2021/06/24 07:30:41;;;;;;;13.53;4.73;;;;;;;29.97;77.00;100295.21;1740391;80;21544;-69
2021/06/24 07:33:08;;;;;;;8.67;3.60;;;;;;;30.16;74.18;100303.83;1738419;81;21117;-67
2021/06/24 07:35:35;;;;;;;13.73;3.67;;;;;;;30.48;68.87;100297.22;1740036;82;20876;-66
2021/06/24 07:38:03;;;;;;;13.67;3.37;;;;;;;30.63;65.00;100295.17;1743048;81;21025;-66
2021/06/24 07:40:30;;;;;;;12.93;3.73;;;;;;;30.84;59.75;100286.73;1740478;80;21138;-61
2021/06/24 07:42:59;;;;;;;17.13;3.90;;;;;;;31.22;58.57;100297.59;1742844;80;22175;-64
2021/06/24 07:45:27;;;;;;;14.50;3.43;;;;;;;31.58;55.98;100294.27;1740504;80;21023;-65
2021/06/24 07:47:53;;;;;;;11.20;3.30;;;;;;;31.58;55.18;100282.14;1738839;80;21046;-68
2021/06/24 07:50:20;;;;;;;10.58;3.65;;;;;;;31.20;56.84;100280.17;1740260;81;22381;-68
2021/06/24 07:52:47;;;;;;;17.87;4.42;;;;;;;31.56;52.74;100287.86;1742421;80;22355;-66
2021/06/24 07:55:14;;;;;;;10.20;3.80;;;;;;;31.57;55.01;100284.61;1739982;80;21169;-68
2021/06/24 07:57:43;;;;;;;11.40;3.45;;;;;;;31.93;56.42;100276.04;1743141;80;21063;-67
2021/06/24 08:00:11;;;;;;;8.48;3.62;;;;;;;32.30;50.48;100268.98;1739145;80;21033;-69
2021/06/24 08:02:40;;;;;;;11.15;4.25;;;;;;;32.19;48.12;100271.27;1745263;80;21028;-68
2021/06/24 08:05:08;;;;;;;10.05;4.10;;;;;;;32.40;48.70;100273.23;1740885;80;22156;-69
2021/06/24 08:07:35;;;;;;;17.02;3.98;;;;;;;32.61;49.48;100269.95;1741312;81;20881;-67
2021/06/24 08:10:03;;;;;;;15.98;4.10;;;;;;;33.12;47.56;100280.63;1739858;81;21636;-68
2021/06/24 08:12:31;;;;;;;11.00;3.75;;;;;;;33.56;46.04;100277.66;1740440;80;21113;-68
2021/06/24 08:14:57;;;;;;;14.83;4.28;;;;;;;33.74;44.62;100287.70;1739855;81;20996;-67
2021/06/24 08:17:25;;;;;;;18.85;4.45;;;;;;;34.11;46.60;100295.25;1772423;78;21150;-67
2021/06/24 08:19:52;;;;;;;13.85;3.87;;;;;;;34.62;45.24;100286.11;1743684;80;21049;-64
2021/06/24 08:22:20;;;;;;;16.97;4.40;;;;;;;35.05;43.72;100283.25;1741005;82;21081;-67
2021/06/24 08:24:47;;;;;;;12.15;3.83;;;;;;;35.23;42.70;100293.20;1774284;79;21058;-62
2021/06/24 08:27:13;;;;;;;12.78;4.22;;;;;;;35.17;42.45;100292.44;1740228;80;21172;-68
2021/06/24 08:29:41;;;;;;;12.85;4.12;;;;;;;34.96;42.25;100290.70;1714042;81;21150;-66
2021/06/24 08:32:08;;;;;;;13.83;4.10;;;;;;;34.64;43.24;100291.77;1773903;79;21093;-71
2021/06/24 08:34:34;;;;;;;16.42;3.75;;;;;;;34.24;45.11;100300.64;1741345;80;21054;-65
2021/06/24 08:37:01;;;;;;;10.43;4.35;;;;;;;34.18;46.94;100297.39;1740489;80;20998;-63
2021/06/24 08:39:28;;;;;;;14.13;4.30;;;;;;;34.29;46.65;100293.66;1741102;81;21098;-70
2021/06/24 08:41:55;;;;;;;14.10;4.55;;;;;;;34.23;47.07;100290.95;1742094;81;22877;-68
2021/06/24 08:44:22;;;;;;;11.55;3.70;;;;;;;34.20;44.73;100292.41;1746871;81;21487;-68
2021/06/24 08:46:51;;;;;;;12.33;3.45;;;;;;;34.14;46.34;100281.05;1774852;79;20943;-68
2021/06/24 08:49:26;;;;;;;13.40;4.25;;;;;;;34.17;44.83;100278.78;1740502;80;21482;-69
2021/06/24 08:51:56;;;;;;;12.93;4.50;;;;;;;34.24;44.19;100280.34;1773453;79;20966;-68
2021/06/24 08:54:23;;;;;;;10.18;3.87;;;;;;;34.42;42.84;100280.30;1779697;79;21062;-68
2021/06/24 08:56:50;;;;;;;14.43;3.60;;;;;;;34.57;41.79;100287.72;1769542;79;21098;-61
2021/06/24 08:59:16;;;;;;;11.30;4.05;;;;;;;34.86;40.80;100292.58;1777276;79;21071;-67
2021/06/24 09:01:58;;;;;;;12.37;4.37;;;;;;;35.18;40.76;100294.00;1750411;81;20883;-61
2021/06/24 09:04:30;;;;;;;11.97;3.52;;;;;;;35.47;40.36;100292.80;1749240;80;20887;-65
2021/06/24 09:07:12;;;;;;;11.83;4.45;;;;;;;35.75;40.50;100286.72;1777612;80;21450;-68
2021/06/24 09:09:53;;;;;;;11.65;3.77;;;;;;;36.03;38.76;100285.26;1745147;80;21561;-68
2021/06/24 09:12:21;;;;;;;9.50;3.85;;;;;;;35.62;39.39;100296.67;1715517;81;21066;-64
2021/06/24 09:15:01;;;;;;;10.82;3.72;;;;;;;35.81;39.83;100290.73;1739036;80;22448;-69
2021/06/24 09:17:36;;;;;;;13.48;3.85;;;;;;;36.18;38.79;100292.33;1702815;82;21045;-70
2021/06/24 09:20:25;;;;;;;17.55;3.95;;;;;;;36.08;38.76;100285.55;1711694;82;21226;-61
2021/06/24 09:23:12;;;;;;;11.63;4.20;;;;;;;35.59;39.34;100281.89;1742156;81;21327;-72
2021/06/24 09:25:43;;;;;;;10.55;3.15;;;;;;;35.28;39.89;100277.23;1735762;81;20999;-70
2021/06/24 09:28:10;;;;;;;15.70;4.67;;;;;;;35.01;40.91;100291.85;1750431;80;21122;-68
2021/06/24 09:30:40;;;;;;;7.92;3.83;;;;;;;34.81;41.68;100293.59;1748037;80;21773;-68
2021/06/24 09:33:17;;;;;;;11.68;4.12;;;;;;;34.79;42.94;100299.16;1741865;80;21537;-69
2021/06/24 09:35:55;;;;;;;14.95;4.10;;;;;;;34.79;43.58;100288.32;1743030;80;20961;-69
2021/06/24 09:38:22;;;;;;;12.43;3.67;;;;;;;34.68;45.51;100296.14;1760503;79;20926;-69
2021/06/24 09:40:55;;;;;;;13.28;3.65;;;;;;;34.65;48.12;100298.75;1776197;79;21131;-69
2021/06/24 09:43:34;;;;;;;14.65;4.78;;;;;;;34.71;48.28;100300.09;1785185;79;21525;-61
2021/06/24 09:46:15;;;;;;;10.48;3.77;;;;;;;34.76;49.21;100307.39;1781311;79;21759;-69
2021/06/24 09:49:00;;;;;;;13.78;3.90;;;;;;;34.72;47.58;100308.43;1745451;81;20963;-62
2021/06/24 09:51:32;;;;;;;19.40;4.20;;;;;;;34.53;47.77;100308.48;1731768;82;21133;-70
2021/06/24 09:54:05;;;;;;;13.75;4.33;;;;;;;34.45;45.13;100310.74;1735761;82;20983;-68
2021/06/24 09:56:46;;;;;;;15.13;4.80;;;;;;;34.41;47.21;100315.27;1740727;81;21035;-70
2021/06/24 09:59:15;;;;;;;9.68;3.08;;;;;;;34.52;47.85;100313.69;1743722;81;21123;-71
2021/06/24 10:01:47;;;;;;;10.48;3.80;;;;;;;34.55;47.07;100317.06;1740691;82;21134;-71
2021/06/24 10:04:29;;;;;;;10.28;3.22;;;;;;;34.57;46.89;100313.44;1740631;81;21069;-71
2021/06/24 10:07:01;;;;;;;10.82;3.80;;;;;;;34.44;48.07;100311.07;1738915;82;21042;-70
2021/06/24 10:09:29;;;;;;;12.23;3.42;;;;;;;34.41;48.70;100308.50;1736115;80;21018;-72
2021/06/24 10:11:57;;;;;;;16.00;4.30;;;;;;;34.52;48.28;100312.34;1739081;82;21043;-72
2021/06/24 10:14:23;;;;;;;14.15;4.05;;;;;;;34.56;50.68;100310.52;1738044;82;21536;-71
2021/06/24 10:16:57;;;;;;;17.55;3.45;;;;;;;34.75;50.00;100305.04;1739864;82;21658;-69
2021/06/24 10:19:35;;;;;;;13.43;3.55;;;;;;;34.84;49.60;100307.02;1732792;82;21050;-72
2021/06/24 10:22:21;;;;;;;11.78;3.20;;;;;;;34.93;49.68;100300.90;1741762;81;21054;-69
2021/06/24 10:25:00;;;;;;;13.20;3.70;;;;;;;34.97;49.66;100307.77;1728205;80;21154;-69
2021/06/24 10:27:36;;;;;;;14.80;4.65;;;;;;;34.98;49.51;100307.41;1741982;81;21020;-73
2021/06/24 10:30:15;;;;;;;9.15;3.45;;;;;;;34.75;49.83;100302.33;1739656;81;21036;-71
2021/06/24 10:32:44;;;;;;;12.65;4.40;;;;;;;34.55;52.36;100304.89;1739908;81;20988;-62
2021/06/24 10:35:30;;;;;;;15.43;3.85;;;;;;;34.17;56.19;100303.91;1739559;81;21510;-71
2021/06/24 10:37:57;;;;;;;12.50;4.28;;;;;;;34.14;56.17;100305.97;1739594;81;21118;-69
2021/06/24 10:40:37;;;;;;;14.95;3.58;;;;;;;34.16;56.18;100302.91;1735934;81;20983;-67
2021/06/24 10:43:13;;;;;;;12.53;4.03;;;;;;;34.12;56.82;100309.00;1739241;81;21008;-71
2021/06/24 10:45:43;;;;;;;11.63;4.03;;;;;;;34.34;57.98;100309.64;1739676;81;20980;-72
2021/06/24 10:48:30;;;;;;;12.13;3.65;;;;;;;34.48;56.27;100315.48;1740609;81;21506;-66
2021/06/24 10:51:01;;;;;;;9.73;3.87;;;;;;;34.60;56.22;100322.23;1739579;81;21143;-64
2021/06/24 10:53:31;;;;;;;;;;;;;;;34.54;61.35;100326.30;1732425;81;21042;-72
2021/06/24 10:55:58;;;;;;;9.53;3.60;;;;;;;34.69;61.95;100323.44;1738289;81;20630;-61
2021/06/24 10:58:30;;;;;;;11.48;3.80;;;;;;;34.84;60.19;100315.14;1730057;81;21022;-71
2021/06/24 11:00:59;;;;;;;11.85;3.85;;;;;;;34.90;59.18;100313.77;1747779;80;21403;-61
2021/06/24 11:03:40;;;;;;;12.65;3.58;;;;;;;35.03;59.56;100322.08;1735573;81;21126;-71
2021/06/24 11:06:15;;;;;;;10.40;4.22;;;;;;;35.09;57.52;100325.34;1737425;82;21019;-71
2021/06/24 11:08:44;;;;;;;8.98;3.70;;;;;;;34.78;61.83;100326.02;1737012;82;20983;-68
2021/06/24 11:11:15;;;;;;;10.82;3.60;;;;;;;34.82;63.93;100322.84;1737106;82;21496;-70
2021/06/24 11:13:50;;;;;;;10.40;3.10;;;;;;;34.84;64.76;100327.33;1736044;80;21526;-70
2021/06/24 11:16:22;;;;;;;12.03;4.12;;;;;;;34.85;65.37;100323.48;1739113;81;21731;-72
2021/06/24 11:19:11;;;;;;;7.95;3.80;;;;;;;34.80;61.37;100329.16;1741479;80;21018;-72
2021/06/24 11:21:43;;;;;;;13.28;4.35;;;;;;;34.86;61.79;100326.43;1736765;80;21398;-72
2021/06/24 11:24:16;;;;;;;11.20;3.60;;;;;;;34.98;62.19;100330.44;1737479;81;20936;-61
2021/06/24 11:26:50;;;;;;;11.60;4.05;;;;;;;35.00;65.56;100323.33;1737752;81;21503;-69
2021/06/24 11:29:39;;;;;;;9.88;4.50;;;;;;;35.00;62.75;100324.12;1737518;80;22347;-71
2021/06/24 11:32:18;;;;;;;16.07;4.67;;;;;;;35.02;62.63;100320.51;1734437;80;21036;-72
2021/06/24 11:35:02;;;;;;;13.50;5.00;;;;;;;35.03;62.80;100322.08;1738072;81;21561;-65